Time;durP1;ratioP1;P1;durP2;ratioP2;P2;SDS_P1;SDS_P2;PMS_P1;PMS_P2;Temp;Humidity;BMP_temperature;BMP_pressure;BME280_temperature;BME280_humidity;BME280_pressure;Samples;Min_cycle;Max_cycle;Signal;HPM_P1;HPM_P2
2022/08/26 00:00:33;;;;;;;20.33;11.30;;;;;;;19.72;100.00;98195.19;2602952;28;20049;-90
2022/08/26 00:01:54;;;;;;;18.00;11.23;;;;;;;19.70;100.00;98194.44;2603106;28;20427;-89
2022/08/26 00:03:11;;;;;;;17.15;10.85;;;;;;;19.59;100.00;98189.84;2602774;28;20053;-90
2022/08/26 00:04:26;;;;;;;15.43;10.43;;;;;;;19.69;100.00;98190.06;2602473;28;20159;-89
2022/08/26 00:05:43;;;;;;;17.27;10.07;;;;;;;19.79;100.00;98193.78;2603324;28;20593;-89
2022/08/26 00:06:59;;;;;;;18.45;10.18;;;;;;;19.80;100.00;98194.66;2602440;28;20053;-90
2022/08/26 00:08:15;;;;;;;23.70;10.73;;;;;;;19.80;100.00;98194.66;2602452;28;20099;-90
2022/08/26 00:09:31;;;;;;;14.07;10.35;;;;;;;19.72;100.00;98192.53;2602834;28;20048;-90
2022/08/26 00:10:47;;;;;;;20.85;10.55;;;;;;;19.65;100.00;98193.91;2602561;28;20045;-90
2022/08/26 00:12:04;;;;;;;17.65;9.90;;;;;;;19.60;100.00;98187.09;2603149;28;20516;-90
2022/08/26 00:13:19;;;;;;;17.48;10.20;;;;;;;19.68;100.00;98196.34;2602352;28;20458;-90
2022/08/26 00:14:35;;;;;;;16.25;10.45;;;;;;;19.67;100.00;98194.63;2603221;28;20044;-90
2022/08/26 00:15:51;;;;;;;17.02;10.50;;;;;;;19.71;100.00;98191.66;2602741;28;20087;-90
2022/08/26 00:17:07;;;;;;;17.92;10.70;;;;;;;19.72;100.00;98195.19;2603084;28;20057;-91
2022/08/26 00:18:22;;;;;;;17.48;10.38;;;;;;;19.73;100.00;98189.75;2602060;28;20056;-90
2022/08/26 00:19:38;;;;;;;21.38;10.07;;;;;;;19.72;100.00;98193.38;2603372;28;20084;-90
2022/08/26 00:20:53;;;;;;;20.17;10.88;;;;;;;19.70;100.00;98189.97;2602658;28;20342;-90
2022/08/26 00:22:09;;;;;;;16.67;10.77;;;;;;;19.74;100.00;98186.13;2602152;28;20474;-91
2022/08/26 00:23:25;;;;;;;14.98;9.88;;;;;;;19.70;100.00;98183.81;2602964;28;20053;-90
2022/08/26 00:24:41;;;;;;;17.33;10.50;;;;;;;19.69;100.00;98187.41;2602633;28;20040;-90
2022/08/26 00:25:57;;;;;;;16.40;9.55;;;;;;;19.65;100.00;98185.94;2602749;28;20041;-90
2022/08/26 00:27:13;;;;;;;15.63;10.30;;;;;;;19.63;100.00;98186.06;2602921;28;20389;-90
2022/08/26 00:28:28;;;;;;;16.25;10.13;;;;;;;19.62;100.00;98187.84;2602037;28;20337;-90
2022/08/26 00:29:44;;;;;;;16.50;10.63;;;;;;;19.63;100.00;98188.72;2602310;28;20045;-90
2022/08/26 00:31:00;;;;;;;17.92;10.07;;;;;;;19.54;100.00;98184.03;2603042;28;20404;-90
2022/08/26 00:32:15;;;;;;;16.00;10.95;;;;;;;19.44;100.00;98184.66;2602800;28;20480;-90
2022/08/26 00:33:31;;;;;;;14.15;10.82;;;;;;;19.37;100.00;98188.69;2602542;28;20049;-90
2022/08/26 00:34:46;;;;;;;18.95;10.95;;;;;;;19.47;100.00;98184.44;2602945;28;20040;-90
2022/08/26 00:36:02;;;;;;;17.00;11.07;;;;;;;19.51;100.00;98185.09;2603049;28;20986;-89
2022/08/26 00:37:18;;;;;;;16.35;11.55;;;;;;;19.52;100.00;98189.44;2602460;28;20091;-89
2022/08/26 00:38:35;;;;;;;21.25;10.45;;;;;;;19.52;100.00;98186.78;2602494;28;20049;-90
2022/08/26 00:39:51;;;;;;;20.23;10.95;;;;;;;19.56;100.00;98188.28;2602423;28;20098;-90
2022/08/26 00:41:07;;;;;;;20.05;10.77;;;;;;;19.57;100.00;98195.28;2602756;28;20049;-90
2022/08/26 00:42:22;;;;;;;17.45;10.68;;;;;;;19.54;100.00;98184.84;2602528;28;20055;-90
2022/08/26 00:43:38;;;;;;;14.93;10.73;;;;;;;19.47;100.00;98191.56;2602490;28;20057;-90
2022/08/26 00:44:54;;;;;;;22.20;11.00;;;;;;;19.50;100.00;98193.16;2602721;28;20450;-90
2022/08/26 00:46:15;;;;;;;18.02;12.07;;;;;;;19.56;100.00;98182.09;2602528;28;20482;-90
2022/08/26 00:47:37;;;;;;;19.70;12.05;;;;;;;19.61;100.00;98190.59;2602509;28;20465;-90
2022/08/26 00:49:06;;;;;;;14.27;10.60;;;;;;;19.60;100.00;98189.75;2602518;28;20502;-90
2022/08/26 00:50:28;;;;;;;14.85;10.88;;;;;;;19.55;100.00;98193.69;2602545;28;20045;-90
2022/08/26 00:51:49;;;;;;;19.52;10.05;;;;;;;19.60;100.00;98188.91;2602093;28;20171;-90
2022/08/26 00:53:20;;;;;;;26.15;11.77;;;;;;;19.61;100.00;98191.47;2602771;28;20053;-90
2022/08/26 00:54:39;;;;;;;16.85;10.20;;;;;;;19.60;100.00;98188.91;2602599;28;20534;-90
2022/08/26 00:56:10;;;;;;;16.27;9.75;;;;;;;19.62;100.00;98193.16;2601637;28;20049;-90
2022/08/26 00:57:26;;;;;;;16.13;10.27;;;;;;;19.62;100.00;98190.50;2601778;28;20048;-90
2022/08/26 00:58:44;;;;;;;18.20;10.10;;;;;;;19.57;100.00;98187.31;2602254;28;20545;-90
2022/08/26 01:00:05;;;;;;;16.15;10.40;;;;;;;19.60;100.00;98188.91;2602968;28;20076;-90
2022/08/26 01:01:21;;;;;;;14.77;10.25;;;;;;;19.65;100.00;98185.94;2602996;28;20041;-89
2022/08/26 01:02:37;;;;;;;20.77;11.00;;;;;;;19.65;100.00;98186.78;2602445;28;20063;-89
2022/08/26 01:03:54;;;;;;;20.92;10.35;;;;;;;19.67;100.00;98189.31;2602975;28;20083;-89
2022/08/26 01:05:10;;;;;;;15.73;10.68;;;;;;;19.66;100.00;98183.19;2602675;28;20506;-90
2022/08/26 01:06:26;;;;;;;22.15;10.73;;;;;;;19.62;100.00;98181.66;2602555;28;20107;-91
2022/08/26 01:07:42;;;;;;;20.30;10.88;;;;;;;19.61;100.00;98186.16;2602395;28;20049;-90
2022/08/26 01:08:58;;;;;;;16.45;9.93;;;;;;;19.66;100.00;98187.63;2602071;28;20111;-90
2022/08/26 01:10:19;;;;;;;16.25;9.82;;;;;;;19.64;100.00;98184.22;2602727;28;20041;-90
2022/08/26 01:11:35;;;;;;;16.88;10.15;;;;;;;19.60;100.00;98191.56;2601989;28;20057;-90
2022/08/26 01:12:56;;;;;;;16.02;9.75;;;;;;;19.64;100.00;98189.53;2602593;28;20083;-90
2022/08/26 01:14:12;;;;;;;18.88;10.38;;;;;;;19.66;100.00;98185.84;2602250;28;20056;-90
2022/08/26 01:15:38;;;;;;;18.17;10.57;;;;;;;19.70;100.00;98189.97;2602807;28;20049;-90
2022/08/26 01:16:54;;;;;;;16.20;10.35;;;;;;;19.70;100.00;98194.44;2602446;28;20052;-90
2022/08/26 01:18:10;;;;;;;17.55;10.13;;;;;;;19.69;100.00;98187.41;2602109;28;20520;-90
2022/08/26 01:19:39;;;;;;;15.38;9.75;;;;;;;19.73;100.00;98192.41;2602514;28;20380;-90
2022/08/26 01:21:13;;;;;;;14.98;8.85;;;;;;;19.70;100.00;98183.81;2602658;28;20071;-90
2022/08/26 01:22:58;;;;;;;14.43;9.50;;;;;;;19.71;100.00;98190.84;2602034;28;20167;-91
2022/08/26 01:24:14;;;;;;;15.57;9.23;;;;;;;19.71;100.00;98185.53;2602576;28;20423;-90
2022/08/26 01:25:33;;;;;;;16.30;9.95;;;;;;;19.71;100.00;98190.84;2602339;28;20053;-89
2022/08/26 01:26:48;;;;;;;18.67;9.60;;;;;;;19.71;100.00;98186.34;2602685;28;20060;-90
2022/08/26 01:28:09;;;;;;;21.35;10.60;;;;;;;19.72;100.00;98190.72;2602026;28;20049;-90
2022/08/26 01:29:25;;;;;;;19.65;9.82;;;;;;;19.72;100.00;98189.88;2602508;28;20056;-90
2022/08/26 01:30:42;;;;;;;17.45;10.25;;;;;;;19.73;100.00;98192.41;2601958;28;20148;-91
2022/08/26 01:31:58;;;;;;;21.75;10.57;;;;;;;19.70;100.00;98189.97;2602878;28;20083;-90
2022/08/26 01:33:18;;;;;;;13.57;9.27;;;;;;;19.71;100.00;98190.84;2602352;28;20083;-90
2022/08/26 01:34:36;;;;;;;15.77;9.68;;;;;;;19.67;100.00;98192.84;2604589;28;20041;-90
2022/08/26 01:35:52;;;;;;;15.82;10.18;;;;;;;19.60;100.00;98186.25;2603919;28;20549;-90
2022/08/26 01:37:18;;;;;;;17.67;10.30;;;;;;;19.58;100.00;98183.72;2604446;28;20111;-90
2022/08/26 01:38:33;;;;;;;15.63;9.05;;;;;;;19.58;100.00;98182.84;2604025;28;20109;-91
2022/08/26 01:39:53;;;;;;;14.23;9.60;;;;;;;19.56;100.00;98182.09;2604496;28;20138;-91
2022/08/26 01:41:13;;;;;;;16.10;9.10;;;;;;;19.59;100.00;98181.91;2604295;28;20089;-90
2022/08/26 01:42:29;;;;;;;13.10;9.45;;;;;;;19.59;100.00;98182.75;2604598;28;20127;-90
2022/08/26 01:43:49;;;;;;;18.30;10.07;;;;;;;19.61;100.00;98182.63;2604059;28;20091;-90
2022/08/26 01:45:08;;;;;;;19.58;10.20;;;;;;;19.63;100.00;98183.41;2604095;28;20418;-90
2022/08/26 01:46:27;;;;;;;14.27;9.48;;;;;;;19.61;100.00;98186.16;2604093;28;20083;-90
2022/08/26 01:47:44;;;;;;;13.50;9.27;;;;;;;19.60;100.00;98179.16;2603946;28;20088;-89
2022/08/26 01:49:03;;;;;;;16.55;9.25;;;;;;;19.59;100.00;98177.44;2604190;28;20403;-90
2022/08/26 01:50:24;;;;;;;15.48;9.65;;;;;;;19.57;100.00;98174.06;2603908;28;20491;-90
2022/08/26 01:51:43;;;;;;;17.33;10.05;;;;;;;19.56;100.00;98182.09;2604004;28;20484;-90
2022/08/26 01:53:05;;;;;;;16.00;9.90;;;;;;;19.55;100.00;98185.72;2604562;28;20048;-90
2022/08/26 01:54:21;;;;;;;18.45;9.50;;;;;;;19.53;100.00;98179.69;2604320;28;20140;-92
2022/08/26 01:55:41;;;;;;;20.35;11.13;;;;;;;19.54;100.00;98184.03;2604405;28;20049;-90
2022/08/26 01:56:57;;;;;;;16.33;9.88;;;;;;;19.48;100.00;98187.94;2604127;28;20565;-91
2022/08/26 01:58:19;;;;;;;14.73;9.35;;;;;;;19.53;100.00;98182.34;2603493;28;20053;-90
2022/08/26 01:59:35;;;;;;;;;;;;;;;19.54;100.00;98190.16;2604395;28;20045;-90
2022/08/26 02:00:51;;;;;;;13.98;9.40;;;;;;;19.50;100.00;98182.56;2604422;28;20342;-90
2022/08/26 02:02:07;;;;;;;16.15;9.70;;;;;;;19.47;100.00;98186.25;2603840;28;20408;-90
2022/08/26 02:03:23;;;;;;;15.15;9.80;;;;;;;19.43;100.00;98182.97;2604558;28;20409;-90
2022/08/26 02:04:50;;;;;;;21.83;10.45;;;;;;;19.46;100.00;98180.09;2603752;28;20053;-90
2022/08/26 02:06:07;;;;;;;15.75;9.85;;;;;;;19.47;100.00;98178.28;2604344;28;20049;-90
2022/08/26 02:07:24;;;;;;;17.85;10.50;;;;;;;19.44;100.00;98176.69;2604099;28;20069;-90
2022/08/26 02:08:43;;;;;;;15.30;10.15;;;;;;;19.44;100.00;98175.84;2604071;28;20148;-90
2022/08/26 02:09:59;;;;;;;17.77;9.50;;;;;;;19.48;100.00;98175.50;2603829;28;20045;-90
2022/08/26 02:11:15;;;;;;;16.42;9.48;;;;;;;19.49;100.00;98171.06;2603478;28;20132;-90
2022/08/26 02:12:31;;;;;;;18.50;10.52;;;;;;;19.47;100.00;98170.31;2604396;28;20053;-91
2022/08/26 02:13:51;;;;;;;15.80;9.65;;;;;;;19.44;100.00;98167.88;2603571;28;20479;-90
2022/08/26 02:15:10;;;;;;;14.80;10.13;;;;;;;19.44;100.00;98173.19;2604854;28;20045;-90
2022/08/26 02:16:30;;;;;;;16.08;9.77;;;;;;;19.46;100.00;98176.59;2603167;28;20480;-91
2022/08/26 02:17:46;;;;;;;17.27;9.77;;;;;;;19.47;100.00;98172.97;2603663;28;20077;-90
2022/08/26 02:19:03;;;;;;;14.68;10.35;;;;;;;19.49;100.00;98181.69;2603713;28;20049;-90
2022/08/26 02:20:19;;;;;;;16.17;10.10;;;;;;;19.46;100.00;98176.59;2604333;28;20318;-90
2022/08/26 02:21:36;;;;;;;14.70;10.10;;;;;;;19.27;100.00;98175.19;2603902;28;20498;-90
2022/08/26 02:22:52;;;;;;;17.80;9.95;;;;;;;19.17;100.00;98174.13;2603550;28;20069;-89
2022/08/26 02:24:17;;;;;;;15.43;10.02;;;;;;;19.06;100.00;98169.53;2604023;28;20048;-90
2022/08/26 02:25:52;;;;;;;14.60;10.15;;;;;;;19.08;100.00;98166.78;2603676;28;20053;-90
2022/08/26 02:27:08;;;;;;;17.58;10.10;;;;;;;19.09;100.00;98173.78;2603195;28;20552;-90
2022/08/26 02:28:27;;;;;;;15.60;10.05;;;;;;;19.10;100.00;98171.03;2603908;28;20132;-90
2022/08/26 02:29:48;;;;;;;17.52;10.48;;;;;;;19.19;100.00;98169.56;2603540;28;20080;-90
2022/08/26 02:31:03;;;;;;;14.57;9.60;;;;;;;19.12;100.00;98168.25;2604276;28;20310;-89
2022/08/26 02:32:19;;;;;;;15.20;9.63;;;;;;;19.11;100.00;98169.22;2603775;28;20060;-90
2022/08/26 02:33:35;;;;;;;16.77;10.20;;;;;;;19.14;100.00;98169.88;2603925;28;20058;-90
2022/08/26 02:34:50;;;;;;;19.75;10.60;;;;;;;19.07;100.00;98162.44;2603569;28;20045;-90
2022/08/26 02:36:06;;;;;;;19.83;10.30;;;;;;;19.09;100.00;98158.72;2604030;28;20041;-89
2022/08/26 02:37:22;;;;;;;19.92;9.73;;;;;;;19.10;100.00;98164.88;2603168;28;20454;-89
2022/08/26 02:38:38;;;;;;;17.73;9.90;;;;;;;19.05;100.00;98168.69;2602318;28;20052;-90
2022/08/26 02:39:53;;;;;;;21.70;10.55;;;;;;;19.10;100.00;98167.53;2602878;28;20053;-90
2022/08/26 02:41:10;;;;;;;14.70;9.75;;;;;;;19.10;100.00;98171.03;2603666;28;20549;-90
2022/08/26 02:42:25;;;;;;;16.17;9.07;;;;;;;19.05;100.00;98166.03;2604213;28;20082;-89
2022/08/26 02:43:41;;;;;;;14.93;9.55;;;;;;;19.04;100.00;98163.47;2604062;28;20356;-90
2022/08/26 02:44:56;;;;;;;15.60;8.90;;;;;;;19.04;100.00;98163.47;2603612;28;20045;-90
2022/08/26 02:46:12;;;;;;;16.48;9.50;;;;;;;19.03;100.00;98161.78;2603367;28;20315;-89
2022/08/26 02:47:27;;;;;;;20.45;9.38;;;;;;;19.01;100.00;98161.91;2603176;28;20495;-90
2022/08/26 02:48:43;;;;;;;15.55;9.98;;;;;;;19.00;100.00;98162.00;2603745;28;20052;-90
2022/08/26 02:49:59;;;;;;;16.15;9.25;;;;;;;18.99;100.00;98158.47;2603672;28;20368;-90
2022/08/26 02:51:14;;;;;;;14.55;8.85;;;;;;;18.98;100.00;98156.75;2603691;28;20053;-89
2022/08/26 02:52:30;;;;;;;14.73;9.57;;;;;;;18.92;100.00;98159.81;2603401;28;20059;-90
2022/08/26 02:53:46;;;;;;;14.60;9.25;;;;;;;18.87;100.00;98156.66;2603512;28;20127;-90
2022/08/26 02:55:03;;;;;;;16.23;9.25;;;;;;;18.77;100.00;98159.03;2604144;28;20060;-90
2022/08/26 02:56:19;;;;;;;12.05;8.95;;;;;;;18.68;100.00;98162.31;2603083;28;20073;-90
2022/08/26 02:57:34;;;;;;;13.57;8.73;;;;;;;18.81;100.00;98165.00;2603606;28;20103;-90
2022/08/26 02:58:50;;;;;;;14.13;8.38;;;;;;;18.89;100.00;98160.03;2603246;28;20056;-90
2022/08/26 03:00:09;;;;;;;13.00;8.77;;;;;;;18.93;100.00;98158.88;2603660;28;20045;-90
2022/08/26 03:01:31;;;;;;;15.95;8.98;;;;;;;18.96;100.00;98163.13;2603603;28;20045;-91
2022/08/26 03:02:47;;;;;;;14.00;9.15;;;;;;;18.97;100.00;98157.69;2603562;28;20068;-90
2022/08/26 03:04:05;;;;;;;13.95;9.52;;;;;;;19.00;100.00;98159.34;2603376;28;20052;-90
2022/08/26 03:05:22;;;;;;;15.55;10.18;;;;;;;19.02;100.00;98160.09;2603664;28;20048;-90
2022/08/26 03:06:38;;;;;;;16.65;9.40;;;;;;;19.04;100.00;98158.19;2603448;28;20290;-90
2022/08/26 03:07:53;;;;;;;16.00;8.65;;;;;;;19.01;100.00;98163.69;2603282;28;20469;-90
2022/08/26 03:09:09;;;;;;;13.32;8.95;;;;;;;18.94;100.00;98155.25;2603114;28;20080;-90
2022/08/26 03:10:25;;;;;;;14.52;8.57;;;;;;;18.82;100.00;98156.94;2603556;28;20411;-91
2022/08/26 03:11:40;;;;;;;15.30;9.45;;;;;;;18.74;100.00;98159.25;2603690;28;20485;-91
2022/08/26 03:12:58;;;;;;;15.05;9.80;;;;;;;18.72;100.00;98164.66;2603555;28;20045;-90
2022/08/26 03:14:14;;;;;;;16.55;10.38;;;;;;;18.62;100.00;98161.75;2603206;28;20499;-91
2022/08/26 03:15:31;;;;;;;16.30;10.35;;;;;;;18.53;100.00;98161.50;2603837;28;20421;-90
2022/08/26 03:16:46;;;;;;;20.30;10.07;;;;;;;18.53;100.00;98153.56;2602803;28;20148;-90
2022/08/26 03:18:02;;;;;;;15.40;10.30;;;;;;;18.46;100.00;98153.97;2603118;28;20499;-90
2022/08/26 03:19:17;;;;;;;17.88;10.70;;;;;;;18.48;100.00;98156.50;2603373;28;20049;-90
2022/08/26 03:20:34;;;;;;;14.45;10.30;;;;;;;18.38;100.00;98153.59;2603545;28;20087;-91
2022/08/26 03:21:51;;;;;;;18.77;11.10;;;;;;;18.28;100.00;98152.50;2603264;28;20504;-90
2022/08/26 03:23:06;;;;;;;19.73;11.95;;;;;;;18.24;100.00;98156.28;2603610;28;20110;-90
2022/08/26 03:24:22;;;;;;;18.40;11.13;;;;;;;18.26;100.00;98154.41;2603199;28;20045;-90
2022/08/26 03:25:38;;;;;;;23.08;12.63;;;;;;;18.18;100.00;98152.25;2603155;28;20060;-91
2022/08/26 03:26:54;;;;;;;19.33;12.32;;;;;;;18.28;100.00;98153.34;2603607;28;20041;-90
2022/08/26 03:28:10;;;;;;;22.00;11.77;;;;;;;18.35;100.00;98151.16;2602955;28;20087;-90
2022/08/26 03:30:59;;;;;;;19.77;11.32;;;;;;;18.26;100.00;98151.75;2602693;28;20076;-90
2022/08/26 03:32:15;;;;;;;20.13;13.23;;;;;;;18.27;100.00;98156.97;2603853;28;20044;-89
2022/08/26 03:33:31;;;;;;;21.27;13.30;;;;;;;18.30;100.00;98161.19;2602557;28;20511;-89
2022/08/26 03:34:46;;;;;;;21.55;13.43;;;;;;;18.30;100.00;98150.59;2603382;28;20084;-90
2022/08/26 03:36:02;;;;;;;25.02;14.18;;;;;;;18.32;100.00;98154.03;2602938;28;20048;-90
2022/08/26 03:37:19;;;;;;;23.77;14.07;;;;;;;18.29;100.00;98146.25;2603523;28;20476;-89
2022/08/26 03:38:35;;;;;;;29.40;15.10;;;;;;;18.39;100.00;98149.16;2602756;28;20057;-90
2022/08/26 03:39:50;;;;;;;29.05;15.02;;;;;;;18.34;100.00;98150.28;2603739;28;20524;-90
2022/08/26 03:41:08;;;;;;;29.60;14.70;;;;;;;18.32;100.00;98146.91;2603090;28;20443;-90
2022/08/26 03:42:24;;;;;;;27.55;15.23;;;;;;;18.33;100.00;98147.75;2603467;28;20551;-90
2022/08/26 03:43:40;;;;;;;22.40;15.18;;;;;;;18.31;100.00;98145.19;2602771;28;20057;-91
2022/08/26 03:44:56;;;;;;;26.27;14.68;;;;;;;18.38;100.00;98145.66;2603265;28;20052;-91
2022/08/26 03:46:11;;;;;;;26.13;15.13;;;;;;;18.35;100.00;98137.91;2602703;28;20392;-90
2022/08/26 03:47:27;;;;;;;21.77;14.00;;;;;;;18.35;100.00;98144.03;2603198;28;20056;-90
2022/08/26 03:48:42;;;;;;;20.65;13.05;;;;;;;18.37;100.00;98143.09;2602628;28;20063;-90
2022/08/26 03:49:58;;;;;;;23.38;13.68;;;;;;;18.38;100.00;98150.13;2603727;28;20104;-90
2022/08/26 03:51:17;;;;;;;22.25;12.57;;;;;;;18.38;100.00;98148.31;2602849;28;20052;-91
2022/08/26 03:52:33;;;;;;;18.33;12.88;;;;;;;18.40;100.00;98148.22;2603176;28;20685;-89
2022/08/26 03:53:48;;;;;;;23.42;12.85;;;;;;;18.35;100.00;98149.34;2602887;28;20266;-90
2022/08/26 03:55:06;;;;;;;19.02;12.23;;;;;;;18.35;100.00;98148.50;2602878;28;20445;-91
2022/08/26 03:56:21;;;;;;;17.83;12.70;;;;;;;18.38;100.00;98145.66;2603211;28;20045;-91
2022/08/26 03:57:37;;;;;;;20.70;12.77;;;;;;;18.45;100.00;98154.94;2602513;28;20053;-91
2022/08/26 03:58:53;;;;;;;17.63;12.75;;;;;;;18.47;100.00;98152.16;2603251;28;20091;-91
2022/08/26 04:00:15;;;;;;;20.63;12.52;;;;;;;18.48;100.00;98153.84;2601946;28;20060;-91
2022/08/26 04:01:31;;;;;;;23.02;12.68;;;;;;;18.48;100.00;98144.13;2603369;28;20049;-91
2022/08/26 04:02:49;;;;;;;17.67;12.23;;;;;;;18.55;100.00;98149.88;2602407;28;20425;-91
2022/08/26 04:04:05;;;;;;;19.73;12.18;;;;;;;18.56;100.00;98150.69;2603501;28;20053;-91
2022/08/26 04:05:22;;;;;;;19.05;12.07;;;;;;;18.54;100.00;98152.59;2602751;28;20520;-91
2022/08/26 04:06:43;;;;;;;18.52;12.30;;;;;;;18.55;100.00;98149.00;2603622;28;20057;-90
2022/08/26 04:07:59;;;;;;;16.95;11.98;;;;;;;18.54;100.00;98156.13;2602351;28;20048;-91
2022/08/26 04:09:19;;;;;;;17.08;12.40;;;;;;;18.57;100.00;98152.41;2603296;28;20384;-90
2022/08/26 04:10:37;;;;;;;16.60;11.80;;;;;;;18.59;100.00;98150.53;2602783;28;20107;-91
2022/08/26 04:11:53;;;;;;;16.55;12.48;;;;;;;18.58;100.00;98160.25;2602998;28;20672;-91
2022/08/26 04:13:11;;;;;;;16.65;11.52;;;;;;;18.60;100.00;98161.00;2602753;28;20049;-91
2022/08/26 04:14:27;;;;;;;19.38;11.93;;;;;;;18.59;100.00;98159.31;2602931;28;20485;-92
2022/08/26 04:15:42;;;;;;;20.35;12.45;;;;;;;18.56;100.00;98156.00;2602888;28;20069;-90
2022/08/26 04:16:58;;;;;;;18.27;11.25;;;;;;;18.55;100.00;98157.81;2603094;28;20408;-91
2022/08/26 04:18:14;;;;;;;19.90;11.93;;;;;;;18.60;100.00;98163.66;2602673;28;20519;-90
2022/08/26 04:19:31;;;;;;;21.90;11.63;;;;;;;18.62;100.00;98159.09;2602897;28;20633;-91
2022/08/26 04:20:48;;;;;;;17.38;11.70;;;;;;;18.62;100.00;98159.09;2602809;28;20048;-90
2022/08/26 04:22:03;;;;;;;16.20;11.40;;;;;;;18.67;100.00;98156.16;2603224;28;20049;-91
2022/08/26 04:23:19;;;;;;;18.10;11.82;;;;;;;18.73;100.00;98154.91;2602830;28;20122;-91
2022/08/26 04:24:35;;;;;;;17.95;10.88;;;;;;;18.72;100.00;98153.19;2603554;28;20049;-90
2022/08/26 04:25:50;;;;;;;13.75;10.95;;;;;;;18.74;100.00;98148.63;2602531;28;20555;-90
2022/08/26 04:27:06;;;;;;;19.38;11.27;;;;;;;18.79;100.00;98151.84;2602947;28;20045;-90
2022/08/26 04:28:21;;;;;;;17.60;11.38;;;;;;;18.81;100.00;98151.72;2602013;28;20613;-91
2022/08/26 04:29:40;;;;;;;19.52;11.60;;;;;;;18.85;100.00;98148.78;2602099;28;20136;-90
2022/08/26 04:30:56;;;;;;;16.70;11.05;;;;;;;18.87;100.00;98154.81;2602085;28;20454;-90
2022/08/26 04:32:12;;;;;;;15.57;11.68;;;;;;;18.89;100.00;98147.63;2603163;28;20085;-91
2022/08/26 04:33:27;;;;;;;19.17;11.80;;;;;;;18.89;100.00;98144.13;2602618;28;20052;-91
2022/08/26 04:34:43;;;;;;;17.50;11.32;;;;;;;18.92;100.00;98149.22;2602773;28;20049;-90
2022/08/26 04:36:01;;;;;;;17.48;11.13;;;;;;;18.92;100.00;98151.88;2602573;28;20083;-90
2022/08/26 04:37:17;;;;;;;20.27;11.27;;;;;;;18.92;100.00;98151.88;2602096;28;20053;-90
2022/08/26 04:38:33;;;;;;;17.42;11.10;;;;;;;19.00;100.00;98146.94;2603380;28;20655;-90
2022/08/26 04:39:52;;;;;;;19.95;11.60;;;;;;;19.10;100.00;98148.94;2602418;28;20487;-90
2022/08/26 04:41:10;;;;;;;18.25;11.15;;;;;;;19.08;100.00;98151.72;2602622;28;20084;-90
2022/08/26 04:42:25;;;;;;;18.65;10.55;;;;;;;19.12;100.00;98149.69;2602704;28;21058;-90
2022/08/26 04:43:41;;;;;;;14.95;9.75;;;;;;;19.08;100.00;98146.41;2603239;28;20044;-91
2022/08/26 04:44:57;;;;;;;18.58;10.80;;;;;;;19.27;100.00;98150.47;2602365;28;20055;-90
2022/08/26 04:46:18;;;;;;;25.77;11.77;;;;;;;19.25;100.00;98150.56;2603264;28;20487;-90
2022/08/26 04:47:34;;;;;;;20.48;11.70;;;;;;;19.22;100.00;98148.13;2602148;28;20140;-90
2022/08/26 04:48:51;;;;;;;22.38;11.40;;;;;;;19.19;100.00;98148.34;2603038;28;20056;-90
2022/08/26 04:50:07;;;;;;;17.23;10.90;;;;;;;19.17;100.00;98144.94;2601701;28;20110;-90
2022/08/26 04:51:26;;;;;;;30.35;12.65;;;;;;;19.16;100.00;98148.56;2602610;28;20431;-90
2022/08/26 04:52:41;;;;;;;23.45;12.63;;;;;;;19.15;100.00;98154.81;2602130;28;20060;-90
2022/08/26 04:53:58;;;;;;;19.90;11.82;;;;;;;19.19;100.00;98151.81;2603480;28;20487;-90
2022/08/26 04:55:14;;;;;;;22.20;11.55;;;;;;;19.23;100.00;98146.34;2602426;28;20212;-90
2022/08/26 04:56:32;;;;;;;22.00;12.20;;;;;;;19.11;100.00;98148.00;2603278;28;20054;-90
2022/08/26 04:57:48;;;;;;;21.90;12.30;;;;;;;19.14;100.00;98150.47;2602568;28;20079;-90
2022/08/26 04:59:07;;;;;;;21.73;11.45;;;;;;;19.08;100.00;98153.53;2602945;28;20056;-90
2022/08/26 05:00:22;;;;;;;23.85;12.30;;;;;;;19.28;100.00;98157.47;2602931;28;20479;-90
2022/08/26 05:01:42;;;;;;;23.10;10.93;;;;;;;19.12;100.00;98150.56;2602885;28;20079;-89
2022/08/26 05:02:59;;;;;;;16.67;11.05;;;;;;;19.27;100.00;98155.78;2602489;28;20060;-90
2022/08/26 05:04:16;;;;;;;19.42;11.65;;;;;;;19.32;100.00;98154.50;2603093;28;20400;-90
2022/08/26 05:05:32;;;;;;;21.30;11.82;;;;;;;19.34;100.00;98149.06;2602438;28;20243;-90
2022/08/26 05:06:48;;;;;;;22.05;11.75;;;;;;;19.33;100.00;98156.19;2602832;28;20049;-90
2022/08/26 05:08:04;;;;;;;19.80;11.82;;;;;;;19.43;100.00;98148.44;2602521;28;20052;-90
2022/08/26 05:09:19;;;;;;;22.23;11.77;;;;;;;19.46;100.00;98150.03;2603591;28;20500;-90
2022/08/26 05:10:43;;;;;;;33.08;12.73;;;;;;;19.47;100.00;98152.56;2605428;28;20447;-90
2022/08/26 05:11:59;;;;;;;21.83;11.77;;;;;;;19.45;100.00;98153.66;2604170;28;20455;-89
2022/08/26 05:13:17;;;;;;;18.13;11.82;;;;;;;19.38;100.00;98155.03;2605088;28;20053;-89
2022/08/26 05:14:33;;;;;;;17.88;11.70;;;;;;;19.41;100.00;98152.16;2604893;28;20139;-90
2022/08/26 05:15:49;;;;;;;21.80;11.32;;;;;;;19.37;100.00;98161.28;2605372;28;20106;-90
2022/08/26 05:17:05;;;;;;;21.60;11.07;;;;;;;19.37;100.00;98156.84;2604884;28;20407;-91
2022/08/26 05:18:23;;;;;;;20.55;11.27;;;;;;;19.37;100.00;98153.31;2605009;28;20045;-90
2022/08/26 05:19:38;;;;;;;17.65;10.45;;;;;;;19.39;100.00;98154.94;2604753;28;20063;-90
2022/08/26 05:20:54;;;;;;;20.42;10.68;;;;;;;19.48;100.00;98159.59;2604624;28;20163;-90
2022/08/26 05:22:10;;;;;;;19.05;11.30;;;;;;;19.59;100.00;98155.34;2604708;28;20056;-90
2022/08/26 05:23:26;;;;;;;18.70;12.30;;;;;;;19.64;100.00;98166.50;2605051;28;20048;-90
2022/08/26 05:24:42;;;;;;;19.98;11.25;;;;;;;19.55;100.00;98160.00;2604507;28;20044;-91
2022/08/26 05:25:59;;;;;;;20.38;12.38;;;;;;;19.63;100.00;98156.84;2604910;28;20155;-91
2022/08/26 05:27:15;;;;;;;16.27;10.77;;;;;;;19.67;100.00;98157.44;2604329;28;20053;-91
2022/08/26 05:28:31;;;;;;;17.30;11.50;;;;;;;19.70;100.00;98157.25;2605423;28;20208;-90
2022/08/26 05:29:47;;;;;;;18.75;10.52;;;;;;;19.74;100.00;98158.75;2604556;28;20040;-90
2022/08/26 05:31:20;;;;;;;15.73;10.60;;;;;;;19.73;100.00;98157.88;2605018;28;20087;-91
2022/08/26 05:32:36;;;;;;;27.20;10.57;;;;;;;19.67;100.00;98162.75;2604098;28;20053;-91
2022/08/26 05:33:52;;;;;;;20.33;10.82;;;;;;;19.80;100.00;98154.81;2605453;28;20336;-91
2022/08/26 05:35:08;;;;;;;14.30;9.60;;;;;;;19.84;100.00;98162.44;2604109;28;20056;-91
2022/08/26 05:36:26;;;;;;;12.88;9.45;;;;;;;19.87;100.00;98161.38;2605200;28;20410;-90
2022/08/26 05:37:42;;;;;;;14.45;10.38;;;;;;;19.96;100.00;98162.53;2603906;28;20056;-91
2022/08/26 05:38:58;;;;;;;14.68;9.85;;;;;;;19.90;100.00;98159.34;2602417;28;20101;-92
2022/08/26 05:40:14;;;;;;;16.63;10.68;;;;;;;19.94;100.00;98161.81;2603636;28;20048;-92
2022/08/26 05:41:33;;;;;;;12.80;10.50;;;;;;;19.95;100.00;98152.88;2604582;28;20114;-92
2022/08/26 05:42:48;;;;;;;13.57;9.77;;;;;;;19.98;100.00;98155.34;2603699;28;20107;-92
2022/08/26 05:44:10;;;;;;;15.90;10.73;;;;;;;19.88;100.00;98160.41;2605184;28;20060;-91
2022/08/26 05:45:26;;;;;;;14.52;9.57;;;;;;;19.84;100.00;98153.63;2604410;28;20088;-92
2022/08/26 05:46:43;;;;;;;16.35;9.38;;;;;;;19.85;100.00;98160.63;2604841;28;20465;-92
2022/08/26 05:47:59;;;;;;;17.63;10.13;;;;;;;19.99;100.00;98159.69;2604363;28;20356;-91
2022/08/26 05:49:15;;;;;;;18.05;10.20;;;;;;;20.09;100.00;98157.22;2603932;28;20496;-92
2022/08/26 05:50:30;;;;;;;21.65;10.57;;;;;;;19.95;100.00;98164.38;2604213;28;20402;-91
2022/08/26 05:51:46;;;;;;;13.85;9.82;;;;;;;20.08;100.00;98155.53;2603967;28;20498;-92
2022/08/26 05:53:02;;;;;;;18.23;10.27;;;;;;;20.03;100.00;98159.34;2605394;28;20362;-93
2022/08/26 05:54:17;;;;;;;15.43;9.70;;;;;;;20.01;100.00;98160.44;2603794;28;20469;-92